createdAt,value
2024-05-09T00:28:23.494Z,13.70
2024-05-09T00:30:53.015Z,13.70
2024-05-09T00:33:25.334Z,13.70
2024-05-09T00:35:54.994Z,13.60
2024-05-09T00:38:24.700Z,13.60
2024-05-09T00:40:54.249Z,13.60
2024-05-09T00:43:23.814Z,13.60
2024-05-09T00:45:54.909Z,13.70
2024-05-09T00:48:28.022Z,13.60
2024-05-09T00:50:58.289Z,13.70
2024-05-09T00:53:28.146Z,13.70
2024-05-09T00:55:59.806Z,13.60
2024-05-09T00:58:31.621Z,13.60
2024-05-09T01:01:02.757Z,13.60
2024-05-09T01:03:35.122Z,13.60
2024-05-09T01:08:35.075Z,13.50
2024-05-09T01:11:04.735Z,13.60
2024-05-09T01:13:34.334Z,13.40
2024-05-09T01:16:03.962Z,13.20
2024-05-09T01:18:36.126Z,13.20
2024-05-09T01:21:08.229Z,13.20
2024-05-09T01:23:40.463Z,13.10
2024-05-09T01:26:10.101Z,13.10
2024-05-09T01:28:39.686Z,13.10
2024-05-09T01:31:09.218Z,13.00
2024-05-09T01:33:38.955Z,12.90
2024-05-09T01:36:09.198Z,12.90
2024-05-09T01:38:41.414Z,12.80
2024-05-09T01:41:10.996Z,12.70
2024-05-09T01:43:40.539Z,12.70
2024-05-09T01:46:15.322Z,12.90
2024-05-09T01:48:44.975Z,12.90
2024-05-09T01:51:15.059Z,13.20
2024-05-09T01:53:48.005Z,13.20
2024-05-09T01:56:17.556Z,13.30
2024-05-09T01:58:47.096Z,13.30
2024-05-09T02:01:16.830Z,13.30
2024-05-09T02:03:48.266Z,13.20
2024-05-09T02:06:17.928Z,13.20
2024-05-09T02:08:51.115Z,13.10
2024-05-09T02:11:20.893Z,13.10
2024-05-09T02:13:50.504Z,13.00
2024-05-09T02:16:20.038Z,12.70
2024-05-09T02:18:49.720Z,12.50
2024-05-09T02:21:19.344Z,12.40
2024-05-09T02:23:51.436Z,12.30
2024-05-09T02:26:21.000Z,12.40
2024-05-09T02:28:50.629Z,12.40
2024-05-09T02:31:20.362Z,12.30
2024-05-09T02:33:50.268Z,12.30
2024-05-09T02:36:20.155Z,12.30
2024-05-09T02:38:49.791Z,12.30
2024-05-09T02:41:19.369Z,12.40
2024-05-09T02:43:46.392Z,12.50
2024-05-09T02:46:15.953Z,12.50
2024-05-09T02:48:43.450Z,12.50
2024-05-09T02:51:13.013Z,12.50
2024-05-09T02:53:40.106Z,12.60
2024-05-09T02:56:12.561Z,12.40
2024-05-09T02:58:39.601Z,12.40
2024-05-09T03:01:09.108Z,12.40
2024-05-09T03:03:36.358Z,12.20
2024-05-09T03:06:06.214Z,12.20
2024-05-09T03:08:33.309Z,12.10
2024-05-09T03:11:02.940Z,12.00
2024-05-09T03:13:32.497Z,12.00
2024-05-09T03:16:02.575Z,11.90
2024-05-09T03:18:32.250Z,11.90
2024-05-09T03:20:59.297Z,11.90
2024-05-09T03:23:28.916Z,11.90
2024-05-09T03:25:55.999Z,11.90
2024-05-09T03:28:25.491Z,11.80
2024-05-09T03:30:55.002Z,11.80
2024-05-09T03:33:24.733Z,11.80
2024-05-09T03:35:51.856Z,11.80
2024-05-09T03:38:21.466Z,11.90
2024-05-09T03:40:52.579Z,11.90
2024-05-09T03:43:22.331Z,11.70
2024-05-09T03:45:52.652Z,11.70
2024-05-09T03:48:22.401Z,11.70
2024-05-09T03:50:52.352Z,11.70
2024-05-09T03:53:19.434Z,11.60
2024-05-09T03:55:49.130Z,11.60
2024-05-09T03:58:16.131Z,11.60
2024-05-09T04:00:45.946Z,11.60
2024-05-09T04:03:13.575Z,11.60
2024-05-09T04:05:46.402Z,11.50
2024-05-09T04:08:14.557Z,11.60
2024-05-09T04:10:44.440Z,11.60
2024-05-09T04:13:11.465Z,11.70
2024-05-09T04:15:41.062Z,11.70
2024-05-09T04:18:08.199Z,11.70
2024-05-09T04:20:40.396Z,11.80
2024-05-09T04:23:13.116Z,11.80
2024-05-09T04:25:45.450Z,11.80
2024-05-09T04:28:13.210Z,11.80
2024-05-09T04:30:43.319Z,11.80
2024-05-09T04:33:14.689Z,11.80
2024-05-09T04:35:43.083Z,11.80
2024-05-09T04:38:16.229Z,12.00
2024-05-09T04:40:43.718Z,12.10
2024-05-09T04:43:18.924Z,12.10
2024-05-09T04:45:46.200Z,12.10
2024-05-09T04:48:16.603Z,12.10
2024-05-09T04:50:44.072Z,12.20
2024-05-09T04:53:18.685Z,12.10
2024-05-09T04:55:45.944Z,12.00
2024-05-09T04:58:15.526Z,12.10
2024-05-09T05:00:42.729Z,12.10
2024-05-09T05:03:15.801Z,12.20
2024-05-09T05:05:45.191Z,12.20
2024-05-09T05:08:19.993Z,12.20
2024-05-09T05:10:48.556Z,12.40
2024-05-09T05:13:20.440Z,12.30
2024-05-09T05:18:19.292Z,12.20
2024-05-09T05:20:46.673Z,12.20
2024-05-09T05:23:21.280Z,12.30
2024-05-09T05:28:19.718Z,12.40
2024-05-09T05:30:46.903Z,12.60
2024-05-09T05:33:18.556Z,12.60
2024-05-09T05:35:46.072Z,12.70
2024-05-09T05:38:15.751Z,12.70
2024-05-09T05:40:45.476Z,12.90
2024-05-09T05:43:20.482Z,12.90
2024-05-09T05:45:47.588Z,13.10
2024-05-09T05:48:18.744Z,13.10
2024-05-09T05:50:46.219Z,13.20
2024-05-09T05:53:16.121Z,13.20
2024-05-09T05:55:45.689Z,13.20
2024-05-09T05:58:15.805Z,13.40
2024-05-09T06:00:43.209Z,13.50
2024-05-09T06:03:14.872Z,13.50
2024-05-09T06:05:43.917Z,13.50
2024-05-09T06:08:14.441Z,13.80
2024-05-09T06:10:42.483Z,13.90
2024-05-09T06:13:15.781Z,13.90
2024-05-09T06:15:43.781Z,13.70
2024-05-09T06:18:14.367Z,13.70
2024-05-09T06:20:43.602Z,13.60
2024-05-09T06:23:14.268Z,13.70
2024-05-09T06:25:42.301Z,13.80
2024-05-09T06:28:14.688Z,13.80
2024-05-09T06:30:43.043Z,13.80
2024-05-09T06:33:15.802Z,13.70
2024-05-09T06:35:44.053Z,13.70
2024-05-09T06:38:13.903Z,13.70
2024-05-09T06:40:43.135Z,13.70
2024-05-09T06:43:18.968Z,13.80
2024-05-09T06:45:47.867Z,13.90
2024-05-09T06:48:20.475Z,13.90
2024-05-09T06:50:48.142Z,13.90
2024-05-09T06:53:18.661Z,14.10
2024-05-09T06:55:45.727Z,14.10
2024-05-09T06:58:18.314Z,14.10
2024-05-09T07:00:45.326Z,14.30
2024-05-09T07:03:18.286Z,17.40
2024-05-09T07:05:48.031Z,14.30
2024-05-09T07:10:51.428Z,14.40
2024-05-09T07:13:23.588Z,14.50
2024-05-09T07:15:50.694Z,14.50
2024-05-09T07:20:49.460Z,14.70
2024-05-09T07:25:47.848Z,14.90
2024-05-09T07:28:18.739Z,14.90
2024-05-09T07:30:48.463Z,14.90
2024-05-09T07:33:23.255Z,15.00
2024-05-09T07:38:21.878Z,15.10
2024-05-09T07:40:49.087Z,15.20
2024-05-09T07:43:18.903Z,15.20
2024-05-09T07:45:53.342Z,15.20
2024-05-09T07:52:39.250Z,15.30
2024-05-09T07:53:49.723Z,15.30
2024-05-09T07:56:21.974Z,15.30
2024-05-09T07:58:54.430Z,15.40
2024-05-09T08:01:26.446Z,15.40
2024-05-09T08:03:56.580Z,15.50
2024-05-09T08:08:53.816Z,15.60
2024-05-09T08:13:50.762Z,15.90
2024-05-09T08:16:17.717Z,16.00
2024-05-09T08:18:49.946Z,16.10
2024-05-09T08:21:18.432Z,16.20
2024-05-09T08:23:47.932Z,16.20
2024-05-09T08:26:14.906Z,16.30
2024-05-09T08:28:44.431Z,16.30
2024-05-09T08:31:11.738Z,16.50
2024-05-09T08:33:51.085Z,16.70
2024-05-09T08:36:18.259Z,16.80
2024-05-09T08:38:47.805Z,17.00
2024-05-09T08:41:15.386Z,17.00
2024-05-09T08:43:46.904Z,16.90
2024-05-09T08:46:14.350Z,16.90
2024-05-09T08:48:46.390Z,17.10
2024-05-09T08:51:16.751Z,17.00
2024-05-09T08:53:46.382Z,17.10
2024-05-09T08:56:14.765Z,17.10
2024-05-09T08:58:45.240Z,17.10
2024-05-09T09:01:14.194Z,17.20
2024-05-09T09:03:45.122Z,17.20
2024-05-09T09:06:14.498Z,17.30
2024-05-09T09:08:48.165Z,17.30
2024-05-09T09:11:15.153Z,17.40
2024-05-09T09:13:44.763Z,17.30
2024-05-09T09:16:12.958Z,17.40
2024-05-09T09:18:46.893Z,17.50
2024-05-09T09:21:14.071Z,17.60
2024-05-09T09:23:46.386Z,17.60
2024-05-09T09:26:18.846Z,17.70
2024-05-09T09:28:45.797Z,17.70
2024-05-09T09:33:43.170Z,17.70
2024-05-09T09:36:14.401Z,17.80
2024-05-09T09:38:46.080Z,17.90
2024-05-09T09:41:17.669Z,17.80
2024-05-09T09:43:45.411Z,17.90
2024-05-09T09:46:16.431Z,17.90
2024-05-09T09:48:44.597Z,18.00
2024-05-09T09:51:15.308Z,18.20
2024-05-09T09:53:45.959Z,18.30
2024-05-09T09:56:18.584Z,18.40
2024-05-09T09:58:46.757Z,18.60
2024-05-09T10:01:16.517Z,18.40
2024-05-09T10:03:45.600Z,18.40
2024-05-09T10:08:46.797Z,18.40
2024-05-09T10:11:16.485Z,18.30
2024-05-09T10:13:43.989Z,18.30
2024-05-09T10:16:14.324Z,18.30
2024-05-09T10:18:41.989Z,18.30
2024-05-09T10:21:21.439Z,18.20
2024-05-09T10:24:02.395Z,18.20
2024-05-09T10:26:36.371Z,18.20
2024-05-09T10:29:12.306Z,18.20
2024-05-09T10:31:44.314Z,18.10
2024-05-09T10:34:19.817Z,18.20
2024-05-09T10:36:53.723Z,18.30
2024-05-09T10:39:26.181Z,18.30
2024-05-09T10:41:55.783Z,18.40
2024-05-09T10:44:22.754Z,18.70
2024-05-09T10:46:54.676Z,18.70
2024-05-09T10:49:22.524Z,18.80
2024-05-09T10:51:52.265Z,18.90
2024-05-09T10:56:58.730Z,19.10
2024-05-09T10:59:32.201Z,19.10
2024-05-09T11:02:02.814Z,19.20
2024-05-09T11:04:30.252Z,19.30
2024-05-09T11:07:04.687Z,19.00
2024-05-09T11:09:33.098Z,19.00
2024-05-09T11:12:05.635Z,19.00
2024-05-09T11:14:32.674Z,19.00
2024-05-09T11:19:33.825Z,19.10
2024-05-09T11:22:04.544Z,19.10
2024-05-09T11:24:31.869Z,19.20
2024-05-09T11:27:02.472Z,19.20
2024-05-09T11:29:39.908Z,19.20
2024-05-09T11:32:11.466Z,19.30
2024-05-09T11:34:38.920Z,19.40
2024-05-09T11:37:08.626Z,19.60
2024-05-09T11:39:35.829Z,19.90
2024-05-09T11:42:06.082Z,19.90
2024-05-09T11:44:33.146Z,19.80
2024-05-09T11:47:06.202Z,19.50
2024-05-09T11:49:33.279Z,19.10
2024-05-09T11:52:02.935Z,19.10
2024-05-09T11:54:30.005Z,19.10
2024-05-09T11:56:59.570Z,19.20
2024-05-09T11:59:26.508Z,19.30
2024-05-09T12:01:56.154Z,19.50
2024-05-09T12:04:25.870Z,19.70
2024-05-09T12:06:55.713Z,19.70
2024-05-09T12:09:22.727Z,19.90
2024-05-09T12:11:52.350Z,20.20
2024-05-09T12:16:49.410Z,20.30
2024-05-09T12:19:17.734Z,20.20
2024-05-09T12:21:50.014Z,20.10
2024-05-09T12:24:18.459Z,20.00
2024-05-09T12:26:48.577Z,19.70
2024-05-09T12:29:15.559Z,19.50
2024-05-09T12:31:45.313Z,19.50
2024-05-09T12:34:13.813Z,19.50
2024-05-09T12:36:43.595Z,19.70
2024-05-09T12:39:13.280Z,19.70
2024-05-09T12:41:43.250Z,19.80
2024-05-09T12:44:10.208Z,19.90
2024-05-09T12:46:39.828Z,20.10
2024-05-09T12:49:07.141Z,20.20
2024-05-09T12:51:37.223Z,20.50
2024-05-09T12:56:37.042Z,20.70
2024-05-09T12:59:04.009Z,20.80
2024-05-09T13:01:33.795Z,20.90
2024-05-09T13:04:01.135Z,20.90
2024-05-09T13:06:31.008Z,20.80
2024-05-09T13:08:58.130Z,20.60
2024-05-09T13:11:27.819Z,20.30
2024-05-09T13:18:55.284Z,19.90
2024-05-09T13:23:52.296Z,20.00
2024-05-09T13:26:21.964Z,20.10
2024-05-09T13:28:48.968Z,20.10
2024-05-09T13:31:21.327Z,20.20
2024-05-09T13:33:48.546Z,20.70
2024-05-09T13:36:18.317Z,20.80
2024-05-09T13:38:45.477Z,20.80
2024-05-09T13:41:18.698Z,20.90
2024-05-09T13:43:45.957Z,20.60
2024-05-09T13:46:15.966Z,20.70
2024-05-09T13:48:45.958Z,20.60
2024-05-09T13:51:15.583Z,20.60
2024-05-09T13:53:42.508Z,20.60
2024-05-09T13:56:12.777Z,20.70
2024-05-09T13:58:39.804Z,20.70
2024-05-09T14:01:09.617Z,20.90
2024-05-09T14:03:37.016Z,20.90
2024-05-09T14:06:12.892Z,20.90
2024-05-09T14:08:40.198Z,20.80
2024-05-09T14:11:09.728Z,20.90
2024-05-09T14:13:36.749Z,21.00
2024-05-09T14:16:06.587Z,21.00
2024-05-09T14:18:34.028Z,21.10
2024-05-09T14:21:04.182Z,21.10
2024-05-09T14:23:34.633Z,21.20
2024-05-09T14:26:04.145Z,21.40
2024-05-09T14:28:31.164Z,21.40
2024-05-09T14:31:01.316Z,21.60
2024-05-09T14:33:30.591Z,21.70
2024-05-09T14:36:00.249Z,21.80
2024-05-09T14:38:27.504Z,21.80
2024-05-09T14:40:59.670Z,22.00
2024-05-09T14:43:26.776Z,21.90
2024-05-09T14:45:56.583Z,22.00
2024-05-09T14:48:23.775Z,21.90
2024-05-09T14:50:53.345Z,21.80
2024-05-09T14:53:20.384Z,22.10
2024-05-09T14:55:50.055Z,22.60
2024-05-09T14:58:19.966Z,22.30
2024-05-09T15:00:51.379Z,22.10
2024-05-09T15:03:20.126Z,22.50
2024-05-09T15:05:51.450Z,22.50
2024-05-09T15:08:19.537Z,22.40
2024-05-09T15:10:50.226Z,22.20
2024-05-09T15:13:21.149Z,22.30
2024-05-09T15:15:51.057Z,22.30
2024-05-09T15:18:18.335Z,22.50
2024-05-09T15:20:48.550Z,22.60
2024-05-09T15:23:15.706Z,22.50
2024-05-09T15:25:46.165Z,22.50
2024-05-09T15:28:13.200Z,22.80
2024-05-09T15:30:46.884Z,23.20
2024-05-09T15:33:16.146Z,22.90
2024-05-09T15:35:46.960Z,23.10
2024-05-09T15:38:18.542Z,23.40
2024-05-09T15:40:48.942Z,23.80
2024-05-09T15:43:16.120Z,23.70
2024-05-09T15:45:48.411Z,23.00
2024-05-09T15:48:15.767Z,23.10
2024-05-09T15:50:45.767Z,23.20
2024-05-09T15:55:44.077Z,23.30
2024-05-09T15:58:12.433Z,23.40
2024-05-09T16:00:44.241Z,22.80
2024-05-09T16:03:15.718Z,23.50
2024-05-09T16:05:47.365Z,23.60
2024-05-09T16:08:15.591Z,24.00
2024-05-09T16:10:46.693Z,23.90
2024-05-09T16:13:14.690Z,23.80
2024-05-09T16:15:46.433Z,24.50
2024-05-09T16:18:16.281Z,24.70
2024-05-09T16:20:48.516Z,25.00
2024-05-09T16:23:17.593Z,25.60
2024-05-09T16:25:48.414Z,25.30
2024-05-09T16:28:16.486Z,25.50
2024-05-09T16:30:46.139Z,25.50
2024-05-09T16:33:19.076Z,26.50
2024-05-09T16:35:52.111Z,26.30
2024-05-09T16:38:19.609Z,26.30
2024-05-09T16:40:49.819Z,25.30
2024-05-09T16:43:16.931Z,24.40
2024-05-09T16:45:46.908Z,25.60
2024-05-09T16:48:16.991Z,25.50
2024-05-09T16:50:46.736Z,25.40
2024-05-09T16:55:43.703Z,25.20
2024-05-09T17:00:43.948Z,26.00
2024-05-09T17:03:14.459Z,25.80
2024-05-09T17:05:48.478Z,25.80
2024-05-09T17:08:16.860Z,26.10
2024-05-09T17:10:48.345Z,26.10
2024-05-09T17:13:18.741Z,26.30
2024-05-09T17:15:49.286Z,25.60
2024-05-09T17:18:19.337Z,25.70
2024-05-09T17:20:52.419Z,25.60
2024-05-09T17:23:19.509Z,25.40
2024-05-09T17:25:49.052Z,25.20
2024-05-09T17:28:16.319Z,25.80
2024-05-09T17:30:45.971Z,25.80
2024-05-09T17:33:13.678Z,25.70
2024-05-09T17:35:45.812Z,25.90
2024-05-09T17:38:15.740Z,26.10
2024-05-09T17:40:45.385Z,26.10
2024-05-09T17:43:12.789Z,26.20
2024-05-09T17:45:42.821Z,26.20
2024-05-09T17:48:11.672Z,26.80
2024-05-09T17:50:42.509Z,26.70
2024-05-09T17:53:10.697Z,26.60
2024-05-09T17:55:43.235Z,26.80
2024-05-09T17:58:11.714Z,26.70
2024-05-09T18:00:42.677Z,27.10
2024-05-09T18:03:11.803Z,27.50
2024-05-09T18:05:44.038Z,27.70
2024-05-09T18:08:11.886Z,27.60
2024-05-09T18:10:44.742Z,27.60
2024-05-09T18:13:13.696Z,26.60
2024-05-09T18:15:45.073Z,26.10
2024-05-09T18:18:13.270Z,25.20
2024-05-09T18:20:45.559Z,24.80
2024-05-09T18:23:15.347Z,24.60
2024-05-09T18:25:48.821Z,24.10
2024-05-09T18:28:16.938Z,23.00
2024-05-09T18:33:14.852Z,22.50
2024-05-09T18:35:45.487Z,22.50
2024-05-09T18:38:13.116Z,22.40
2024-05-09T18:40:44.909Z,22.00
2024-05-09T18:43:17.306Z,21.70
2024-05-09T18:45:47.586Z,21.60
2024-05-09T18:48:15.497Z,21.40
2024-05-09T18:50:45.278Z,21.30
2024-05-09T18:53:13.395Z,21.10
2024-05-09T18:58:11.463Z,20.80
2024-05-09T19:00:46.031Z,20.80
2024-05-09T19:03:15.929Z,20.60
2024-05-09T19:05:46.562Z,20.50
2024-05-09T19:08:14.685Z,20.40
2024-05-09T19:10:45.341Z,20.40
2024-05-09T19:15:46.977Z,20.30
2024-05-09T19:18:14.995Z,20.20
2024-05-09T19:23:12.661Z,19.80
2024-05-09T19:25:42.261Z,19.80
2024-05-09T19:28:09.329Z,19.80
2024-05-09T19:30:41.847Z,19.60
2024-05-09T19:33:13.638Z,19.40
2024-05-09T19:35:44.322Z,19.40
2024-05-09T19:38:12.172Z,19.30
2024-05-09T19:40:41.942Z,19.20
2024-05-09T19:43:09.416Z,19.10
2024-05-09T19:45:39.266Z,19.00
2024-05-09T19:48:07.550Z,19.00
2024-05-09T19:50:43.467Z,19.00
2024-05-09T19:53:12.421Z,18.90
2024-05-09T19:55:42.522Z,18.90
2024-05-09T19:58:10.428Z,18.90
2024-05-09T20:00:43.368Z,18.90
2024-05-09T20:03:12.296Z,18.90
2024-05-09T20:05:45.371Z,18.90
2024-05-09T20:08:13.005Z,18.80
2024-05-09T20:10:42.639Z,18.80
2024-05-09T20:13:09.730Z,18.80
2024-05-09T20:15:40.020Z,18.80
2024-05-09T20:18:07.727Z,18.80
2024-05-09T20:23:13.874Z,18.70
2024-05-09T20:25:43.890Z,18.60
2024-05-09T20:30:41.383Z,18.70
2024-05-09T20:33:09.579Z,18.60
2024-05-09T20:35:39.893Z,18.60
2024-05-09T20:38:07.293Z,18.30
2024-05-09T20:40:40.070Z,18.20
2024-05-09T20:43:08.596Z,18.20
2024-05-09T20:45:38.913Z,18.10
2024-05-09T20:48:07.962Z,18.00
2024-05-09T20:50:41.037Z,18.00
2024-05-09T20:53:10.855Z,18.00
2024-05-09T20:55:43.696Z,18.00
2024-05-09T20:58:11.576Z,18.00
2024-05-09T21:00:44.426Z,18.00
2024-05-09T21:03:14.912Z,18.00
2024-05-09T21:05:46.389Z,18.00
2024-05-09T21:08:14.059Z,17.90
2024-05-09T21:10:46.225Z,18.00
2024-05-09T21:13:13.275Z,17.90
2024-05-09T21:15:43.079Z,17.90
2024-05-09T21:18:10.188Z,17.90
2024-05-09T21:20:39.952Z,17.90
2024-05-09T21:23:07.035Z,17.80
2024-05-09T21:25:36.701Z,17.70
2024-05-09T21:28:06.898Z,17.70
2024-05-09T21:30:41.712Z,17.70
2024-05-09T21:33:12.272Z,17.60
2024-05-09T21:35:44.354Z,17.70
2024-05-09T21:38:13.912Z,17.80
2024-05-09T21:40:44.447Z,17.90
2024-05-09T21:43:14.766Z,17.90
2024-05-09T21:45:44.755Z,18.00
2024-05-09T21:48:12.940Z,18.00
2024-05-09T21:50:42.924Z,18.30
2024-05-09T21:53:10.494Z,17.80
2024-05-09T21:55:40.238Z,17.60
2024-05-09T21:58:07.236Z,17.60
2024-05-09T22:00:42.782Z,17.50
2024-05-09T22:03:11.379Z,17.60
2024-05-09T22:05:44.767Z,17.50
2024-05-09T22:08:12.302Z,17.40
2024-05-09T22:10:41.996Z,17.40
2024-05-09T22:13:09.282Z,17.20
2024-05-09T22:18:10.846Z,16.90
2024-05-09T22:20:44.879Z,16.90
2024-05-09T22:23:13.482Z,16.70
2024-05-09T22:25:43.198Z,16.80
2024-05-09T22:28:10.413Z,16.90
2024-05-09T22:30:43.935Z,16.90
2024-05-09T22:33:12.138Z,16.80
2024-05-09T22:35:42.441Z,16.90
2024-05-09T22:38:09.483Z,16.90
2024-05-09T22:40:47.131Z,16.80
2024-05-09T22:43:21.027Z,16.70
2024-05-09T22:48:23.839Z,16.60
2024-05-09T22:50:54.498Z,16.50
2024-05-09T22:53:22.628Z,16.50
2024-05-09T22:55:52.157Z,16.50
2024-05-09T22:58:19.480Z,16.50
2024-05-09T23:00:49.342Z,16.50
2024-05-09T23:03:21.261Z,16.50
2024-05-09T23:05:51.383Z,16.50
2024-05-09T23:08:18.407Z,16.40
2024-05-09T23:10:47.975Z,16.40
2024-05-09T23:13:15.359Z,16.30
2024-05-09T23:15:45.339Z,16.20
2024-05-09T23:18:12.354Z,16.20
2024-05-09T23:20:44.556Z,16.20
2024-05-09T23:23:12.275Z,15.80
2024-05-09T23:25:42.674Z,15.90
2024-05-09T23:28:09.908Z,15.90
2024-05-09T23:30:40.989Z,16.00
2024-05-09T23:33:10.448Z,16.00
2024-05-09T23:35:40.869Z,15.90
2024-05-09T23:38:10.601Z,15.90
2024-05-09T23:40:41.564Z,15.90
2024-05-09T23:43:10.194Z,15.80
2024-05-09T23:45:40.149Z,15.70
2024-05-09T23:48:08.142Z,15.70
2024-05-09T23:50:39.588Z,15.70
2024-05-09T23:53:14.175Z,15.80
2024-05-09T23:55:41.433Z,15.90
2024-05-09T23:58:11.378Z,15.90
